Time;durP1;ratioP1;P1;durP2;ratioP2;P2;SDS_P1;SDS_P2;PMS_P1;PMS_P2;Temp;Humidity;BMP_temperature;BMP_pressure;BME280_temperature;BME280_humidity;BME280_pressure;Samples;Min_cycle;Max_cycle;Signal;HPM_P1;HPM_P2
2023/04/13 00:01:34;;;;;;;22.33;4.13;;;7.50;99.90;;;6.55;100.00;100476.03;4135307;28;20150;-75
2023/04/13 00:03:35;;;;;;;16.55;3.38;;;7.50;99.90;;;6.59;100.00;100484.44;4135296;28;20026;-76
2023/04/13 00:05:39;;;;;;;21.48;4.07;;;7.50;99.90;;;6.64;100.00;100461.28;4134280;28;20109;-75
2023/04/13 00:07:40;;;;;;;21.40;4.82;;;7.50;99.90;;;6.56;100.00;100477.69;4136765;28;20033;-75
2023/04/13 00:09:40;;;;;;;19.80;3.35;;;7.40;99.90;;;6.61;100.00;100491.19;4135407;28;20023;-75
2023/04/13 00:11:41;;;;;;;15.70;2.92;;;7.40;99.90;;;6.53;100.00;100469.28;4121261;28;20034;-75
2023/04/13 00:13:46;;;;;;;18.33;3.15;;;7.40;99.90;;;6.51;100.00;100479.88;4134051;28;20034;-75
2023/04/13 00:15:47;;;;;;;17.58;3.65;;;7.40;99.90;;;6.46;100.00;100481.25;4136360;28;20034;-75
2023/04/13 00:17:48;;;;;;;16.38;2.90;;;7.40;99.90;;;6.43;100.00;100481.53;4136291;28;20394;-75
2023/04/13 00:19:49;;;;;;;22.33;3.63;;;7.30;99.90;;;6.32;100.00;100464.16;4135220;28;20031;-75
2023/04/13 00:21:51;;;;;;;21.13;4.30;;;7.30;99.90;;;6.38;100.00;100481.09;4121028;28;20025;-75
2023/04/13 00:23:52;;;;;;;22.73;3.63;;;7.30;99.90;;;6.39;100.00;100483.56;4124666;28;20030;-75
2023/04/13 00:25:53;;;;;;;18.95;4.53;;;7.20;99.90;;;6.28;100.00;100483.69;4128741;28;20391;-75
2023/04/13 00:27:54;;;;;;;16.50;3.33;;;7.20;99.90;;;6.30;100.00;100487.00;4135004;28;20026;-75
2023/04/13 00:29:55;;;;;;;15.07;3.75;;;7.20;99.90;;;6.25;100.00;100489.22;4133205;28;20101;-75
2023/04/13 00:31:56;;;;;;;17.05;3.13;;;7.10;99.90;;;6.25;100.00;100483.97;4120256;28;20097;-75
2023/04/13 00:33:57;;;;;;;13.68;2.50;;;7.10;99.90;;;6.17;100.00;100480.38;4120015;28;20031;-75
2023/04/13 00:35:58;;;;;;;16.35;4.00;;;7.10;99.90;;;6.15;100.00;100482.31;4130324;28;20522;-75
2023/04/13 00:38:01;;;;;;;13.38;3.13;;;7.00;99.90;;;6.10;100.00;100480.91;4118650;28;20030;-75
2023/04/13 00:40:04;;;;;;;19.80;3.70;;;7.00;99.90;;;6.10;100.00;100480.06;4134972;28;20030;-75
2023/04/13 00:42:09;;;;;;;14.05;4.15;;;7.00;99.90;;;6.27;100.00;100474.22;4119091;28;20154;-75
2023/04/13 00:44:10;;;;;;;16.60;3.50;;;7.00;99.90;;;6.28;100.00;100477.63;4134857;28;20046;-75
2023/04/13 00:46:11;;;;;;;12.80;3.40;;;7.00;99.90;;;6.24;100.00;100465.78;4134799;28;20034;-75
2023/04/13 00:48:13;;;;;;;25.30;4.60;;;7.10;99.90;;;6.07;100.00;100454.16;4134898;28;20637;-76
2023/04/13 00:50:18;;;;;;;19.55;4.50;;;7.10;99.90;;;6.23;100.00;100472.81;4127544;28;20026;-75
2023/04/13 00:52:20;;;;;;;21.27;4.57;;;7.10;99.90;;;6.19;100.00;100473.19;4122406;28;20034;-75
2023/04/13 00:54:21;;;;;;;19.42;4.93;;;7.00;99.90;;;6.08;100.00;100467.13;4135064;28;20478;-75
2023/04/13 00:56:26;;;;;;;21.02;5.38;;;7.00;99.90;;;5.99;100.00;100461.88;4108921;28;20035;-75
2023/04/13 00:58:27;;;;;;;17.48;4.13;;;6.90;99.90;;;5.99;100.00;100470.56;4136129;28;20038;-75
2023/04/13 01:00:27;;;;;;;18.48;4.75;;;6.90;99.90;;;5.95;100.00;100473.56;4135702;28;20018;-75
2023/04/13 01:02:28;;;;;;;19.92;4.15;;;6.80;99.90;;;5.88;100.00;100470.66;4122942;28;20140;-75
2023/04/13 01:04:29;;;;;;;12.73;3.53;;;6.70;99.90;;;5.80;100.00;100470.44;4123196;28;20074;-75
2023/04/13 01:06:42;;;;;;;15.18;3.58;;;6.70;99.90;;;5.80;100.00;100465.19;4115229;28;20027;-75
2023/04/13 01:09:38;;;;;;;16.25;3.30;;;6.60;99.90;;;5.76;100.00;100473.47;4136517;28;20390;-75
2023/04/13 01:11:59;;;;;;;16.90;2.65;;;6.60;99.90;;;5.66;100.00;100467.34;4134629;28;20061;-75
2023/04/13 01:14:30;;;;;;;14.68;2.47;;;6.60;99.90;;;5.65;100.00;100478.78;4136465;28;20030;-75
2023/04/13 01:16:49;;;;;;;16.80;4.15;;;6.50;99.90;;;5.56;100.00;100473.38;4134891;28;20125;-76
2023/04/13 01:18:53;;;;;;;19.50;2.78;;;6.50;99.90;;;5.60;100.00;100473.94;4136622;28;20502;-75
2023/04/13 01:20:55;;;;;;;13.15;3.25;;;6.50;99.90;;;5.57;100.00;100477.66;4127384;28;20054;-75
2023/04/13 01:23:00;;;;;;;20.95;3.40;;;6.50;99.90;;;5.58;100.00;100471.44;4122799;28;20054;-75
2023/04/13 01:25:34;;;;;;;15.50;3.72;;;6.50;99.90;;;5.59;100.00;100474.88;4122599;28;20030;-75
2023/04/13 01:27:52;;;;;;;21.25;3.40;;;6.40;99.90;;;5.51;100.00;100474.72;4122896;28;20027;-76
2023/04/13 01:29:55;;;;;;;19.15;3.65;;;6.40;99.90;;;5.51;100.00;100465.09;4136890;28;20026;-75
2023/04/13 01:31:57;;;;;;;13.00;2.93;;;6.40;99.90;;;5.46;100.00;100467.28;4128521;28;20027;-75
2023/04/13 01:33:57;;;;;;;17.77;3.75;;;6.30;99.90;;;5.51;100.00;100474.72;4138972;28;20030;-75
2023/04/13 01:36:00;;;;;;;13.40;4.03;;;6.30;99.90;;;5.50;100.00;100468.66;4138652;28;20046;-75
2023/04/13 01:38:05;;;;;;;17.63;3.75;;;6.30;99.90;;;5.49;100.00;100469.63;4137505;28;20113;-75
2023/04/13 01:40:12;;;;;;;18.27;4.20;;;6.30;99.90;;;5.47;100.00;100473.31;4136949;28;20034;-75
2023/04/13 01:42:13;;;;;;;21.50;3.92;;;6.30;99.90;;;5.49;100.00;100467.03;4131752;28;20090;-76
2023/04/13 01:44:14;;;;;;;18.58;3.33;;;6.40;99.90;;;5.51;100.00;100470.31;4125198;28;20050;-75
2023/04/13 01:46:14;;;;;;;24.92;4.35;;;6.40;99.90;;;5.44;100.00;100458.72;4130344;28;20046;-75
2023/04/13 01:48:34;;;;;;;24.15;2.90;;;6.40;99.90;;;5.49;100.00;100463.56;4138555;28;20154;-75
2023/04/13 01:50:42;;;;;;;20.20;3.90;;;6.40;99.90;;;5.42;100.00;100458.03;4137133;28;20030;-75
2023/04/13 01:52:43;;;;;;;16.10;3.35;;;6.40;99.90;;;5.39;100.00;100442.59;4120835;28;20104;-75
2023/04/13 01:54:48;;;;;;;15.13;3.60;;;6.30;99.90;;;5.43;100.00;100449.22;4137372;28;20038;-75
2023/04/13 01:56:49;;;;;;;13.20;3.92;;;6.30;99.90;;;5.44;100.00;100448.25;4136936;28;20038;-75
2023/04/13 01:58:57;;;;;;;17.83;4.07;;;6.30;99.90;;;5.44;100.00;100450.88;4133711;28;20033;-76
2023/04/13 02:00:59;;;;;;;16.73;4.03;;;6.30;99.90;;;5.39;100.00;100441.75;4109003;28;20035;-75
2023/04/13 02:03:00;;;;;;;13.20;3.30;;;6.30;99.90;;;5.28;100.00;100437.44;4114088;28;20027;-75
2023/04/13 02:05:01;;;;;;;19.95;4.72;;;6.30;99.90;;;5.38;100.00;100456.63;4132239;28;20486;-75
2023/04/13 02:07:02;;;;;;;17.17;3.35;;;6.30;99.90;;;5.38;100.00;100450.56;4136989;28;20025;-75
2023/04/13 02:09:05;;;;;;;21.65;4.97;;;6.30;99.90;;;5.36;100.00;100453.31;4153052;28;20733;-75
2023/04/13 02:11:07;;;;;;;18.88;3.45;;;6.20;99.90;;;5.34;100.00;100443.94;4137867;28;20502;-75
2023/04/13 02:13:08;;;;;;;11.98;3.40;;;6.20;99.90;;;5.31;100.00;100452.88;4152592;28;20034;-75
2023/04/13 02:15:10;;;;;;;15.50;3.88;;;6.20;99.90;;;5.29;100.00;100452.16;4138003;28;20042;-75
2023/04/13 02:17:11;;;;;;;20.55;4.97;;;6.20;99.90;;;5.29;100.00;100461.78;4136985;28;20144;-75
2023/04/13 02:19:12;;;;;;;19.48;4.18;;;6.20;99.90;;;5.30;100.00;100447.75;4128413;28;20478;-75
2023/04/13 02:21:14;;;;;;;21.58;4.75;;;6.20;99.90;;;5.25;100.00;100449.94;4136853;28;20018;-75
2023/04/13 02:23:16;;;;;;;18.13;5.03;;;6.10;99.90;;;5.19;100.00;100451.28;4133747;28;20034;-75
2023/04/13 02:25:17;;;;;;;18.48;7.15;;;6.10;99.90;;;5.23;100.00;100452.69;4120692;28;20042;-75
2023/04/13 02:27:18;;;;;;;21.60;5.82;;;6.10;99.90;;;5.23;100.00;100449.22;4136809;28;20026;-75
2023/04/13 02:29:19;;;;;;;16.52;4.43;;;6.10;99.90;;;5.24;100.00;100454.34;4114539;28;20029;-75
2023/04/13 02:31:22;;;;;;;18.08;3.50;;;6.10;99.90;;;5.17;100.00;100447.16;4136753;28;20073;-75
2023/04/13 02:33:22;;;;;;;16.30;4.50;;;6.10;99.90;;;5.16;100.00;100448.09;4137929;28;20026;-75
2023/04/13 02:35:24;;;;;;;20.95;4.97;;;6.10;99.90;;;5.25;100.00;100461.25;4136649;28;20413;-75
2023/04/13 02:37:25;;;;;;;23.25;4.53;;;6.10;99.90;;;5.24;100.00;100459.56;4137796;28;20019;-75
2023/04/13 02:39:26;;;;;;;15.00;3.78;;;6.10;99.90;;;5.26;100.00;100462.88;4136405;28;20105;-75
2023/04/13 02:41:28;;;;;;;16.77;4.10;;;6.10;99.90;;;5.24;100.00;100449.13;4127022;28;20030;-75
2023/04/13 02:43:29;;;;;;;14.63;4.13;;;6.10;99.90;;;5.25;100.00;100463.84;4127100;28;20144;-75
2023/04/13 02:45:30;;;;;;;17.98;5.38;;;6.10;99.90;;;5.23;100.00;100457.91;4152735;28;20500;-75
2023/04/13 02:47:32;;;;;;;15.50;3.88;;;6.10;99.90;;;5.13;100.00;100449.19;4152440;28;20040;-75
2023/04/13 02:49:33;;;;;;;14.98;3.78;;;6.10;99.90;;;5.19;100.00;100450.47;4136387;28;20070;-75
2023/04/13 02:51:35;;;;;;;13.80;3.58;;;6.10;99.90;;;5.16;100.00;100455.94;4136716;28;20030;-75
2023/04/13 02:53:36;;;;;;;16.00;4.40;;;6.10;99.90;;;5.16;100.00;100454.16;4136282;28;20102;-75
2023/04/13 02:55:37;;;;;;;16.73;3.70;;;6.00;99.90;;;5.09;100.00;100437.31;4137202;28;20037;-75
2023/04/13 02:57:41;;;;;;;15.43;3.30;;;6.00;99.90;;;5.19;100.00;100459.13;4136373;28;20030;-75
2023/04/13 02:59:42;;;;;;;15.75;4.03;;;6.10;99.90;;;5.27;100.00;100461.94;4127867;28;20415;-75
2023/04/13 03:01:44;;;;;;;22.42;3.35;;;6.10;99.90;;;5.45;100.00;100455.16;4137380;28;20041;-76
2023/04/13 03:03:45;;;;;;;19.45;4.68;;;6.20;99.90;;;5.39;100.00;100450.44;4135937;28;20025;-76
2023/04/13 03:05:49;;;;;;;17.38;3.72;;;6.20;99.90;;;5.33;100.00;100444.91;4125812;28;20022;-75
2023/04/13 03:07:50;;;;;;;15.45;2.67;;;6.20;99.90;;;5.44;100.00;100455.25;4136146;28;20029;-75
2023/04/13 03:09:51;;;;;;;19.85;3.65;;;6.20;99.90;;;5.35;100.00;100435.13;4131026;28;20034;-75
2023/04/13 03:11:52;;;;;;;10.55;2.30;;;6.30;99.90;;;5.33;100.00;100448.34;4152476;28;20417;-75
2023/04/13 03:13:53;;;;;;;14.77;2.50;;;6.20;99.90;;;5.33;100.00;100453.56;4136184;28;20038;-75
2023/04/13 03:15:54;;;;;;;16.90;2.13;;;6.20;99.90;;;5.24;100.00;100454.34;4128858;28;20379;-75
2023/04/13 03:17:58;;;;;;;21.80;2.78;;;6.20;99.90;;;5.29;100.00;100452.16;4136101;28;20026;-76
2023/04/13 03:19:59;;;;;;;14.07;2.38;;;6.20;99.90;;;5.27;100.00;100455.88;4135360;28;20031;-75
2023/04/13 03:22:01;;;;;;;20.60;3.28;;;6.20;99.90;;;5.12;100.00;100433.63;4136010;28;20041;-75
2023/04/13 03:24:01;;;;;;;16.20;4.05;;;6.10;99.90;;;5.18;100.00;100454.84;4127358;28;20023;-75
2023/04/13 03:26:03;;;;;;;24.80;4.63;;;6.10;99.90;;;5.14;100.00;100458.69;4129757;28;20501;-75
2023/04/13 03:28:04;;;;;;;15.85;4.80;;;6.10;99.90;;;5.15;100.00;100459.50;4151836;28;20022;-75
2023/04/13 03:30:06;;;;;;;12.07;2.90;;;6.00;99.90;;;5.08;100.00;100456.56;4135855;28;20030;-75
2023/04/13 03:32:07;;;;;;;14.75;4.03;;;6.00;99.90;;;4.96;100.00;100447.13;4128567;28;20030;-75
2023/04/13 03:34:08;;;;;;;12.18;2.92;;;6.00;99.90;;;5.03;100.00;100466.59;4120815;28;20487;-75
2023/04/13 03:36:09;;;;;;;13.50;4.10;;;5.90;99.90;;;4.98;100.00;100455.69;4133567;28;20038;-75
2023/04/13 03:38:10;;;;;;;13.57;2.83;;;5.90;99.90;;;4.92;100.00;100459.66;4137181;28;20030;-75
2023/04/13 03:40:11;;;;;;;13.10;3.63;;;5.90;99.90;;;4.87;100.00;100461.78;4135385;28;20042;-75
2023/04/13 03:42:12;;;;;;;16.00;3.28;;;5.90;99.90;;;4.89;100.00;100469.53;4129201;28;20033;-75
2023/04/13 03:44:13;;;;;;;15.73;3.35;;;5.80;99.90;;;4.89;100.00;100474.75;4123126;28;20274;-75
2023/04/13 03:46:14;;;;;;;11.85;3.17;;;5.80;99.90;;;4.91;100.00;100467.59;4136275;28;20776;-75
2023/04/13 03:48:15;;;;;;;13.85;3.28;;;5.80;99.90;;;4.92;100.00;100462.28;4135880;28;20101;-75
2023/04/13 03:50:17;;;;;;;16.38;3.25;;;5.80;99.90;;;4.94;100.00;100465.56;4130070;28;20089;-75
2023/04/13 03:52:18;;;;;;;18.60;4.53;;;5.80;99.90;;;4.91;100.00;100467.59;4136580;28;20023;-75
2023/04/13 03:54:18;;;;;;;21.88;3.50;;;5.80;99.90;;;4.86;100.00;100457.53;4135518;28;20038;-75
2023/04/13 03:56:20;;;;;;;12.23;3.15;;;5.80;99.90;;;4.83;100.00;100465.63;4135183;28;20022;-75
2023/04/13 03:58:21;;;;;;;14.07;3.28;;;5.80;99.90;;;4.85;100.00;100468.09;4128430;28;20031;-75
2023/04/13 04:00:21;;;;;;;18.40;3.25;;;5.70;99.90;;;4.84;100.00;100475.13;4136635;28;20506;-75
2023/04/13 04:02:22;;;;;;;14.68;3.90;;;5.70;99.90;;;4.70;100.00;100458.91;4151113;28;20053;-75
2023/04/13 04:04:23;;;;;;;19.42;3.78;;;5.70;99.90;;;4.72;100.00;100472.69;4136522;28;20083;-75
2023/04/13 04:06:26;;;;;;;13.70;3.85;;;5.60;99.90;;;4.74;100.00;100481.22;4136843;28;20092;-75
2023/04/13 04:08:27;;;;;;;11.52;2.40;;;5.70;99.90;;;4.74;100.00;100483.84;4136350;28;20022;-75
2023/04/13 04:10:27;;;;;;;11.35;3.15;;;5.60;99.90;;;4.70;100.00;100487.66;4136203;28;20525;-75
2023/04/13 04:12:28;;;;;;;16.98;3.28;;;5.60;99.90;;;4.58;100.00;100472.97;4129531;28;20062;-75
2023/04/13 04:14:29;;;;;;;17.70;3.50;;;5.60;99.90;;;4.66;100.00;100489.69;4119178;28;20027;-75
2023/04/13 04:16:30;;;;;;;16.58;3.53;;;5.50;99.90;;;4.54;100.00;100469.78;4130942;28;20038;-75
2023/04/13 04:18:31;;;;;;;15.30;3.50;;;5.50;99.90;;;4.64;100.00;100483.75;4133815;28;20042;-75
2023/04/13 04:20:32;;;;;;;15.07;3.75;;;5.50;99.90;;;4.59;100.00;100478.09;4125293;28;20130;-75
2023/04/13 04:22:35;;;;;;;19.08;4.10;;;5.50;99.90;;;4.65;100.00;100488.03;4135264;28;20030;-75
2023/04/13 04:24:36;;;;;;;13.30;3.25;;;5.40;99.90;;;4.51;100.00;100469.22;4131991;28;20018;-75
2023/04/13 04:26:37;;;;;;;12.07;3.88;;;5.50;99.90;;;4.63;100.00;100489.94;4135895;28;20031;-75
2023/04/13 04:28:38;;;;;;;14.57;3.92;;;5.40;99.90;;;4.60;100.00;100495.41;4136244;28;20053;-75
2023/04/13 04:30:39;;;;;;;14.73;3.47;;;5.40;99.90;;;4.59;100.00;100485.91;4134999;28;20035;-75
2023/04/13 04:32:41;;;;;;;16.52;4.22;;;5.40;99.90;;;4.58;100.00;100489.47;4131346;28;20033;-75
2023/04/13 04:34:42;;;;;;;14.20;3.67;;;5.40;99.90;;;4.59;100.00;100490.31;4134632;28;20038;-75
2023/04/13 04:36:44;;;;;;;14.85;3.20;;;5.40;99.90;;;4.50;100.00;100478.84;4134812;28;20030;-75
2023/04/13 04:38:46;;;;;;;14.88;4.38;;;5.40;99.90;;;4.53;100.00;100482.97;4110978;28;20445;-75
2023/04/13 04:40:49;;;;;;;21.10;3.55;;;5.40;99.90;;;4.46;100.00;100478.25;4135778;28;20031;-75
2023/04/13 04:42:50;;;;;;;19.60;2.78;;;5.40;99.90;;;4.49;100.00;100485.00;4134761;28;20113;-75
2023/04/13 04:44:51;;;;;;;13.73;3.28;;;5.40;99.90;;;4.52;100.00;100486.53;4134684;28;20422;-75
2023/04/13 04:46:53;;;;;;;12.05;3.60;;;5.40;99.90;;;4.43;100.00;100468.03;4110641;28;20038;-75
2023/04/13 04:48:54;;;;;;;13.65;2.53;;;5.40;99.90;;;4.41;100.00;100475.19;4130106;28;20033;-75
2023/04/13 04:50:54;;;;;;;12.65;3.75;;;5.40;99.90;;;4.43;100.00;100488.09;4118288;28;20030;-75
2023/04/13 04:52:55;;;;;;;11.38;3.58;;;5.40;99.90;;;4.46;100.00;100491.31;4123387;28;20026;-75
2023/04/13 04:54:56;;;;;;;13.40;4.38;;;5.40;99.90;;;4.37;100.00;100480.75;4134665;28;20029;-75
2023/04/13 04:57:00;;;;;;;13.07;3.72;;;5.40;99.90;;;4.41;100.00;100477.78;4135131;28;20031;-75
2023/04/13 04:59:01;;;;;;;;;;;5.40;99.90;;;4.42;100.00;100486.47;4119305;28;20023;-75
2023/04/13 05:01:02;;;;;;;16.13;3.50;;;5.40;99.90;;;4.45;100.00;100492.25;4134938;28;20324;-75
2023/04/13 05:03:03;;;;;;;11.05;2.83;;;5.40;99.90;;;4.40;100.00;100470.91;4135887;28;20053;-75
2023/04/13 05:05:05;;;;;;;11.50;2.58;;;5.40;99.90;;;4.52;100.00;100474.28;4134731;28;20481;-75
2023/04/13 05:07:07;;;;;;;11.75;2.03;;;5.50;99.90;;;4.59;100.00;100482.47;4133105;28;20023;-75
2023/04/13 05:09:08;;;;;;;13.32;2.65;;;5.50;99.90;;;4.62;100.00;100477.00;4124574;28;20034;-76
2023/04/13 05:11:10;;;;;;;10.32;3.28;;;5.60;99.90;;;4.64;100.00;100480.31;4135614;28;20022;-75
2023/04/13 05:13:11;;;;;;;13.27;1.95;;;5.60;99.90;;;4.67;100.00;100474.84;4134720;28;20039;-76
2023/04/13 05:15:12;;;;;;;12.07;2.50;;;5.60;99.90;;;4.74;100.00;100476.84;4132554;28;20041;-75
2023/04/13 05:17:16;;;;;;;13.13;2.60;;;5.60;99.90;;;4.78;100.00;100474.81;4124135;28;20062;-75
2023/04/13 05:19:17;;;;;;;;;;;5.70;99.90;;;4.78;100.00;100477.44;4134625;28;20061;-75
2023/04/13 05:21:18;;;;;;;13.70;2.75;;;5.70;99.90;;;4.83;100.00;100485.72;4129823;28;19913;-76
2023/04/13 05:23:19;;;;;;;11.85;2.33;;;5.80;99.90;;;4.87;100.00;100487.94;4121181;28;20490;-75
2023/04/13 05:25:20;;;;;;;9.02;2.33;;;5.80;99.90;;;4.95;100.00;100489.94;4123041;28;20025;-75
2023/04/13 05:27:21;;;;;;;11.40;2.33;;;5.80;99.90;;;4.95;100.00;100480.31;4127483;28;20049;-75
2023/04/13 05:29:22;;;;;;;14.68;2.00;;;5.90;99.90;;;4.99;100.00;100480.84;4134655;28;20590;-75
2023/04/13 05:31:23;;;;;;;9.50;2.17;;;5.90;99.90;;;5.00;100.00;100490.38;4133728;28;20030;-76
2023/04/13 05:33:24;;;;;;;10.90;2.55;;;5.90;99.90;;;5.09;100.00;100496.63;4135691;28;20042;-76
2023/04/13 05:35:26;;;;;;;13.30;2.97;;;5.90;99.90;;;5.03;100.00;100490.13;4135605;28;20026;-75
2023/04/13 05:37:27;;;;;;;9.68;2.15;;;6.00;99.90;;;5.06;100.00;100502.09;4134461;28;20415;-75
2023/04/13 05:39:28;;;;;;;10.25;1.88;;;5.90;99.90;;;5.01;100.00;100495.50;4135429;28;20049;-75
2023/04/13 05:41:29;;;;;;;10.55;2.17;;;5.90;99.90;;;4.99;100.00;100493.94;4134308;28;20022;-75
2023/04/13 05:43:30;;;;;;;7.07;1.58;;;5.90;99.90;;;4.92;100.00;100488.41;4127011;28;20047;-75
2023/04/13 05:45:31;;;;;;;11.35;2.40;;;5.90;99.90;;;4.96;100.00;100483.72;4128527;28;20027;-76
2023/04/13 05:47:32;;;;;;;9.45;1.70;;;6.00;99.90;;;5.01;100.00;100489.44;4134520;28;20414;-75
2023/04/13 05:49:34;;;;;;;10.82;2.20;;;6.00;99.90;;;5.16;100.00;100500.41;4153720;28;20128;-75
2023/04/13 05:51:37;;;;;;;11.88;2.90;;;6.00;99.90;;;5.18;100.00;100501.91;4138279;28;20114;-75
2023/04/13 05:53:38;;;;;;;12.25;2.17;;;6.10;99.90;;;5.14;100.00;100487.44;4128475;28;20026;-76
2023/04/13 05:55:42;;;;;;;10.60;2.60;;;6.10;99.90;;;5.26;100.00;100493.44;4133900;28;20027;-75
2023/04/13 05:57:43;;;;;;;9.98;2.53;;;6.10;99.90;;;5.25;100.00;100490.00;4125140;28;20034;-76
2023/04/13 05:59:43;;;;;;;13.85;2.10;;;6.10;99.90;;;5.34;100.00;100497.09;4128032;28;20041;-75
2023/04/13 06:01:45;;;;;;;10.88;3.05;;;6.20;99.90;;;5.37;100.00;100491.59;4138299;28;20042;-76
2023/04/13 06:03:46;;;;;;;10.55;2.30;;;6.20;99.90;;;5.38;100.00;100482.78;4137014;28;20023;-75
2023/04/13 06:05:47;;;;;;;14.00;2.95;;;6.30;99.90;;;5.45;100.00;100491.78;4124048;28;20109;-75
2023/04/13 06:07:49;;;;;;;11.40;2.85;;;6.30;99.90;;;5.39;100.00;100484.44;4122274;28;20035;-75
2023/04/13 06:09:50;;;;;;;12.30;2.88;;;6.30;99.90;;;5.43;100.00;100487.63;4130580;28;20034;-75
2023/04/13 06:11:51;;;;;;;15.30;3.38;;;6.30;99.90;;;5.47;100.00;100489.84;4134261;28;20057;-75
2023/04/13 06:13:52;;;;;;;8.02;2.05;;;6.30;99.90;;;5.43;100.00;100471.94;4138282;28;20023;-75
2023/04/13 06:15:53;;;;;;;11.77;2.03;;;6.40;99.90;;;5.53;100.00;100485.88;4137133;28;20053;-76
2023/04/13 06:17:54;;;;;;;9.27;1.80;;;6.30;99.90;;;5.55;100.00;100478.75;4138025;28;20042;-75
2023/04/13 06:19:55;;;;;;;6.53;1.90;;;6.40;99.90;;;5.58;100.00;100478.50;4153012;28;20069;-75
2023/04/13 06:21:57;;;;;;;7.57;2.03;;;6.50;99.90;;;5.66;100.00;100485.66;4138127;28;20513;-75
2023/04/13 06:23:58;;;;;;;9.90;1.95;;;6.50;99.90;;;5.63;100.00;100478.91;4138011;28;20030;-75
2023/04/13 06:25:59;;;;;;;10.40;1.58;;;6.50;99.90;;;5.77;100.00;100493.44;4137762;28;20079;-75
2023/04/13 06:28:03;;;;;;;6.45;2.08;;;6.60;99.90;;;5.93;100.00;100496.44;4136554;28;20031;-75
2023/04/13 06:30:08;;;;;;;9.80;2.53;;;6.70;99.90;;;5.98;100.00;100489.81;4125218;28;20600;-75
2023/04/13 06:32:10;;;;;;;9.43;1.85;;;6.80;99.90;;;6.07;100.00;100481.19;4137950;28;20037;-76
2023/04/13 06:34:11;;;;;;;8.20;1.77;;;6.90;99.90;;;6.20;100.00;100480.94;4152866;28;20030;-75
2023/04/13 06:36:12;;;;;;;10.27;2.80;;;7.00;99.90;;;6.34;100.00;100491.03;4136436;28;20383;-75
2023/04/13 06:38:13;;;;;;;11.02;2.65;;;7.10;99.90;;;6.49;100.00;100483.59;4124072;28;20041;-76
2023/04/13 06:40:15;;;;;;;10.00;2.00;;;7.30;99.90;;;6.66;100.00;100486.38;4136369;28;20059;-76
2023/04/13 06:42:17;;;;;;;7.43;1.95;;;7.40;99.90;;;6.75;100.00;100473.44;4137968;28;20057;-76
2023/04/13 06:44:18;;;;;;;11.75;1.88;;;7.60;99.90;;;7.00;100.00;100475.47;4123104;28;20159;-76
2023/04/13 06:46:20;;;;;;;12.10;2.35;;;7.70;99.90;;;7.07;100.00;100479.19;4124328;28;20029;-78
2023/04/13 06:48:20;;;;;;;8.95;2.03;;;7.80;99.90;;;7.03;100.00;100459.44;4129635;28;20030;-75
2023/04/13 06:50:21;;;;;;;9.57;2.25;;;7.90;99.90;;;7.09;100.00;100472.84;4130126;28;20410;-75
2023/04/13 06:52:22;;;;;;;13.48;1.95;;;7.90;99.90;;;7.02;100.00;100474.34;4136309;28;20022;-75
2023/04/13 06:54:23;;;;;;;7.22;2.33;;;7.90;99.90;;;6.99;100.00;100479.09;4137465;28;20038;-75
2023/04/13 06:56:24;;;;;;;10.20;1.77;;;7.90;99.90;;;7.04;100.00;100469.81;4136221;28;20030;-75
2023/04/13 06:58:25;;;;;;;8.57;1.63;;;7.90;99.90;;;7.12;100.00;100474.34;4128224;28;20111;-74
2023/04/13 07:00:26;;;;;;;9.52;2.17;;;7.90;99.90;;;6.95;100.00;100452.31;4132553;28;20031;-75
2023/04/13 07:02:27;;;;;;;7.15;1.77;;;7.90;99.90;;;6.99;100.00;100452.84;4136127;28;20034;-75
2023/04/13 07:04:29;;;;;;;9.10;2.28;;;8.00;99.90;;;7.05;100.00;100460.13;4136222;28;20034;-75
2023/04/13 07:06:30;;;;;;;7.40;1.60;;;8.00;99.90;;;7.16;100.00;100466.06;4129153;28;20122;-75
2023/04/13 07:08:34;;;;;;;8.15;1.48;;;8.10;99.90;;;7.27;100.00;100470.31;4123599;28;20082;-75
2023/04/13 07:10:38;;;;;;;6.70;1.63;;;8.20;99.90;;;7.38;100.00;100462.28;4137070;28;20494;-75
2023/04/13 07:12:38;;;;;;;8.90;1.75;;;8.40;99.90;;;7.65;100.00;100464.94;4135767;28;20034;-75
2023/04/13 07:14:40;;;;;;;9.65;1.83;;;8.60;99.90;;;8.02;100.00;100456.22;4130724;28;20058;-75
2023/04/13 07:16:41;;;;;;;12.70;1.50;;;9.00;99.90;;;8.55;99.18;100451.91;4121949;28;20110;-75
2023/04/13 07:18:42;;;;;;;7.65;2.20;;;9.30;99.90;;;9.01;97.63;100444.72;4122885;28;20026;-75
2023/04/13 07:20:43;;;;;;;7.72;1.88;;;9.70;99.90;;;9.12;95.45;100428.69;4135673;28;20026;-76
2023/04/13 07:22:44;;;;;;;13.15;1.92;;;9.80;99.90;;;8.92;94.54;100432.50;4135967;28;20030;-75
2023/04/13 07:24:45;;;;;;;9.45;2.08;;;9.70;99.90;;;8.63;94.97;100433.56;4136562;28;20038;-75
2023/04/13 07:26:46;;;;;;;7.68;1.50;;;9.60;99.90;;;8.37;96.11;100439.72;4123975;28;20038;-76
2023/04/13 07:28:47;;;;;;;6.55;1.98;;;9.40;99.90;;;8.18;97.27;100461.69;4137037;28;20033;-75
2023/04/13 07:30:48;;;;;;;6.82;1.60;;;9.20;99.90;;;7.92;98.56;100461.53;4142696;28;20022;-75
2023/04/13 07:32:49;;;;;;;6.47;1.40;;;8.90;99.90;;;7.79;98.78;100469.72;4132085;28;20022;-75
2023/04/13 07:34:49;;;;;;;4.30;1.40;;;8.80;99.90;;;7.74;100.00;100476.38;4136726;28;20026;-75
2023/04/13 07:36:50;;;;;;;4.80;1.42;;;8.70;99.90;;;7.54;99.86;100452.03;4136911;28;20027;-75
2023/04/13 07:38:51;;;;;;;7.45;1.58;;;8.60;99.90;;;7.61;99.82;100460.97;4131208;28;20022;-74
2023/04/13 07:40:52;;;;;;;5.50;2.38;;;8.60;99.90;;;7.80;99.98;100475.81;4137031;28;20041;-75
2023/04/13 07:42:53;;;;;;;5.30;1.83;;;8.60;99.90;;;7.82;99.11;100477.31;4132694;28;20049;-75
2023/04/13 07:44:55;;;;;;;7.25;2.20;;;8.70;99.90;;;7.97;99.64;100482.13;4120047;28;20137;-75
2023/04/13 07:46:56;;;;;;;8.23;1.55;;;8.70;99.90;;;8.03;98.53;100471.03;4127494;28;20026;-75
2023/04/13 07:48:57;;;;;;;5.65;1.30;;;8.80;99.90;;;8.00;98.67;100473.94;4124452;28;20614;-75
2023/04/13 07:50:58;;;;;;;6.28;1.50;;;8.90;99.90;;;8.13;98.29;100463.91;4120179;28;20037;-75
2023/04/13 07:52:59;;;;;;;7.93;1.70;;;9.00;99.90;;;8.29;97.95;100485.97;4107729;28;20042;-75
2023/04/13 07:55:02;;;;;;;5.97;1.50;;;9.10;99.90;;;8.58;97.04;100475.25;4136427;28;20073;-76
2023/04/13 07:57:04;;;;;;;3.95;1.02;;;9.30;99.90;;;8.74;95.17;100474.59;4128513;28;20053;-75
2023/04/13 07:59:05;;;;;;;8.80;1.30;;;9.50;99.90;;;8.87;94.68;100467.97;4133977;28;20057;-76
2023/04/13 08:01:06;;;;;;;6.82;1.17;;;9.70;99.90;;;9.15;94.40;100475.75;4118102;28;20030;-75
2023/04/13 08:03:07;;;;;;;5.78;0.90;;;9.90;99.90;;;9.32;92.31;100472.25;4119552;28;20022;-76
2023/04/13 08:05:09;;;;;;;5.50;1.35;;;10.10;99.90;;;9.42;91.65;100465.06;4117955;28;20031;-76
2023/04/13 08:07:10;;;;;;;8.23;1.00;;;10.20;99.90;;;9.67;91.17;100474.78;4131213;28;20113;-75
2023/04/13 08:09:11;;;;;;;5.45;1.20;;;10.40;99.90;;;9.86;89.31;100471.06;4122741;28;20026;-75
2023/04/13 08:11:11;;;;;;;4.20;1.05;;;10.60;99.90;;;9.93;87.94;100467.66;4125373;28;20104;-76
2023/04/13 08:13:14;;;;;;;5.53;1.40;;;10.70;99.90;;;10.09;87.05;100456.34;4135782;28;20034;-76
2023/04/13 08:15:15;;;;;;;7.57;1.70;;;10.80;99.90;;;10.33;87.73;100468.81;4133573;28;20056;-74
2023/04/13 08:17:16;;;;;;;3.92;0.80;;;11.00;99.90;;;10.39;86.47;100468.16;4124477;28;20034;-74
2023/04/13 08:19:17;;;;;;;7.68;1.52;;;11.20;99.90;;;10.47;85.04;100479.56;4134712;28;20031;-74
2023/04/13 08:21:18;;;;;;;4.00;1.00;;;11.20;99.90;;;10.50;85.19;100475.75;4130012;28;20509;-74
2023/04/13 08:23:20;;;;;;;8.93;1.08;;;11.20;99.90;;;10.62;85.46;100468.38;4135535;28;20054;-74
2023/04/13 08:25:21;;;;;;;7.72;1.33;;;11.40;99.90;;;10.75;84.79;100469.53;4134134;28;20457;-74
2023/04/13 08:27:22;;;;;;;7.35;1.35;;;11.50;99.90;;;10.82;84.07;100467.06;4134421;28;20119;-74
2023/04/13 08:29:26;;;;;;;6.78;1.35;;;11.50;99.90;;;10.82;83.99;100475.81;4135021;28;20090;-74
2023/04/13 08:31:27;;;;;;;9.73;1.60;;;11.60;99.90;;;10.81;84.60;100470.72;4135976;28;20034;-74